Back to Top

Language: 

Current Local METAR Station Weather Reports...

Local METAR Reports

Local METAR Reports

 

EGCN - Doncaster Sheffield Airport, United Kingdom
Distance from station: E 20mi, 32km
Updated: Thu, 01-Jan-1970 1:00am BST
NOT Current
unable to load EGCN data RC=
unable to load EGCN data RC=
 
EGNM - Leeds Bradford International, United Kingdom
Distance from station: NNW 24mi, 39km
Updated: Mon, 18-Jun-2018 1:50pm BST
Few Clouds
Few Clouds
 Wind from W
Wind: W 22 mph , 35 km/h
Temperature: 17°C
Dew Point: 8°C
Humidity: 56%
Barometer: 1015 hPa
Clouds: Few Clouds
Visibility: 6 miles , 10 km
Cloud details: Few Clouds 853 m
2018/06/18 12:50 EGNM 181250Z 26019KT 220V290 9999 FEW028 17/08 Q1015
 
EGCC - Manchester International, United Kingdom
Distance from station: WSW 35mi, 56km
Updated: Mon, 18-Jun-2018 1:50pm BST
Overcast
Overcast
 Wind from WSW
Wind: WSW 15 mph , 24 km/h
Temperature: 18°C
Dew Point: 10°C
Humidity: 60%
Barometer: 1017 hPa
Clouds: Overcast
Visibility: 6 miles , 10 km
Cloud details: Mostly Cloudy 1036 m
Overcast 1250 m
2018/06/18 12:50 EGCC 181250Z AUTO 25013KT 9999 BKN034 OVC041 18/10 Q1017 NOSIG
EGXU - Linton-On-Ouse RAF, United Kingdom
Distance from station: NNE 37mi, 60km
Updated: Mon, 18-Jun-2018 12:50pm BST
Partly Cloudy
Partly Cloudy
 Wind from W
Wind: W 22 mph , 35 km/h
Temperature: 19°C
Dew Point: 8°C
Humidity: 49%
Barometer: 1015 hPa
Clouds: Partly Cloudy
Visibility: 6 miles , 10 km
Cloud details: Few Clouds 1219 m
Partly Cloudy 3048 m
2018/06/18 11:50 EGXU 181150Z 26019KT 9999 FEW040 SCT100 19/08 Q1015 BLU NOSIG
 
EGXP - Scampton RAF, United Kingdom
Distance from station: ESE 41mi, 66km
Updated: Mon, 18-Jun-2018 12:50pm BST
Mostly Cloudy
Mostly Cloudy
 Wind from W
Wind: W 16 mph , 26 km/h
Temperature: 20°C
Dew Point: 10°C
Humidity: 53%
Barometer: 1016 hPa
Clouds: Mostly Cloudy
Visibility: 6 miles , 10 km
Cloud details: Mostly Cloudy 1829 m
2018/06/18 11:50 EGXP 181150Z AUTO 26014KT 9999 // BKN060/// 20/10 Q1016
EGNJ - Humberside Airport, United Kingdom
Distance from station: E 46mi, 74km
Updated: Mon, 18-Jun-2018 1:50pm BST
Few Clouds
Few Clouds
 Wind from SW
Wind: SW 17 mph , 28 km/h
Temperature: 21°C
Dew Point: 10°C
Humidity: 50%
Barometer: 1015 hPa
Clouds: Few Clouds
Visibility: 6 miles , 10 km
Cloud details: Few Clouds 1067 m
2018/06/18 12:50 EGNJ 181250Z 23015KT 9999 FEW035 21/10 Q1015
 
EGXW - Waddington RAF, United Kingdom
Distance from station: ESE 46mi, 74km
Updated: Mon, 18-Jun-2018 12:50pm BST
Few Clouds
Few Clouds
 Wind from W
Wind: W 14 mph , 22 km/h
Temperature: 20°C
Dew Point: 10°C
Humidity: 53%
Barometer: 1016 hPa
Clouds: Few Clouds
Visibility: 6 miles , 10 km
Cloud details: Few Clouds 1067 m
2018/06/18 11:50 EGXW 181150Z 26012KT 9999 FEW035 20/10 Q1016 BLU NOSIG
EGXZ - Topcliffe RAF, United Kingdom
Distance from station: N 46mi, 75km
Updated: Mon, 18-Jun-2018 12:50pm BST
Partly Cloudy
Partly Cloudy
 Wind from WSW
Wind: WSW 21 mph , 33 km/h
Temperature: 18°C
Dew Point: 8°C
Humidity: 52%
Barometer: 1014 hPa
Clouds: Partly Cloudy
Visibility: 6 miles , 10 km
Cloud details: Partly Cloudy 1067 m
2018/06/18 11:50 EGXZ 181150Z 25018KT 9999 SCT035 18/08 Q1014 BLU
 
EGXV - Leconfield, United Kingdom
Distance from station: ENE 48mi, 77km
Updated: Mon, 18-Jun-2018 12:50pm BST
Few Clouds
Few Clouds
 Wind from WSW
Wind: WSW 15 mph , 24 km/h
Temperature: 19°C
Dew Point: 10°C
Humidity: 56%
Barometer: 1015 hPa
Clouds: Few Clouds
Visibility: 6 miles , 10 km
Cloud details: Few Clouds 1280 m
2018/06/18 11:50 EGXV 181150Z AUTO 25013KT 9999 FEW042/// 19/10 Q1015
EGNX - East Midlands, United Kingdom
Distance from station: S 50mi, 80km
Updated: Mon, 18-Jun-2018 1:20pm BST
Partly Cloudy
Partly Cloudy
 Wind from WSW
Wind: WSW 21 mph , 33 km/h
Temperature: 21°C
Dew Point: 11°C
Humidity: 53%
Barometer: 1017 hPa
Clouds: Partly Cloudy
Visibility: 6 miles , 10 km
Cloud details: Partly Cloudy 1463 m
2018/06/18 12:20 EGNX 181220Z 25018KT 9999 SCT048 21/11 Q1017

Metar display script from Saratoga-Weather.org

Data updates at regular intervals.